sensor_id;sensor_type;location;lat;lon;timestamp;P1;durP1;ratioP1;P2;durP2;ratioP2
9218;SDS011;4644;48.858;9.184;2022-12-18T00:00:00;66.93;;;30.30;;
9218;SDS011;4644;48.858;9.184;2022-12-18T00:02:27;62.23;;;31.07;;
9218;SDS011;4644;48.858;9.184;2022-12-18T00:04:54;65.33;;;30.77;;
9218;SDS011;4644;48.858;9.184;2022-12-18T00:07:25;70.60;;;30.83;;
9218;SDS011;4644;48.858;9.184;2022-12-18T00:09:52;66.83;;;30.93;;
9218;SDS011;4644;48.858;9.184;2022-12-18T00:12:19;62.07;;;28.47;;
9218;SDS011;4644;48.858;9.184;2022-12-18T00:14:48;64.57;;;30.63;;
9218;SDS011;4644;48.858;9.184;2022-12-18T00:17:15;70.13;;;30.60;;
9218;SDS011;4644;48.858;9.184;2022-12-18T00:19:42;65.73;;;30.47;;
9218;SDS011;4644;48.858;9.184;2022-12-18T00:22:09;72.57;;;32.10;;
9218;SDS011;4644;48.858;9.184;2022-12-18T00:24:37;64.27;;;29.87;;
9218;SDS011;4644;48.858;9.184;2022-12-18T00:27:04;63.73;;;30.10;;
9218;SDS011;4644;48.858;9.184;2022-12-18T00:29:32;63.33;;;30.07;;
9218;SDS011;4644;48.858;9.184;2022-12-18T00:31:59;62.90;;;30.60;;
9218;SDS011;4644;48.858;9.184;2022-12-18T00:34:26;63.40;;;30.97;;
9218;SDS011;4644;48.858;9.184;2022-12-18T00:36:53;69.20;;;31.10;;
9218;SDS011;4644;48.858;9.184;2022-12-18T00:39:20;66.97;;;30.17;;
9218;SDS011;4644;48.858;9.184;2022-12-18T00:41:49;64.30;;;28.83;;
9218;SDS011;4644;48.858;9.184;2022-12-18T00:44:33;60.13;;;29.57;;
9218;SDS011;4644;48.858;9.184;2022-12-18T00:47:00;64.47;;;30.00;;
9218;SDS011;4644;48.858;9.184;2022-12-18T00:49:27;65.20;;;29.93;;
9218;SDS011;4644;48.858;9.184;2022-12-18T00:51:54;61.73;;;30.27;;
9218;SDS011;4644;48.858;9.184;2022-12-18T00:54:21;64.50;;;30.03;;
9218;SDS011;4644;48.858;9.184;2022-12-18T00:56:50;67.17;;;31.43;;
9218;SDS011;4644;48.858;9.184;2022-12-18T00:59:17;63.47;;;29.30;;
9218;SDS011;4644;48.858;9.184;2022-12-18T01:01:44;62.73;;;29.97;;
9218;SDS011;4644;48.858;9.184;2022-12-18T01:04:12;66.17;;;29.97;;
9218;SDS011;4644;48.858;9.184;2022-12-18T01:06:40;64.80;;;30.40;;
9218;SDS011;4644;48.858;9.184;2022-12-18T01:09:07;69.33;;;30.53;;
9218;SDS011;4644;48.858;9.184;2022-12-18T01:11:34;65.27;;;30.53;;
9218;SDS011;4644;48.858;9.184;2022-12-18T01:14:02;65.30;;;30.23;;
9218;SDS011;4644;48.858;9.184;2022-12-18T01:16:29;59.47;;;29.03;;
9218;SDS011;4644;48.858;9.184;2022-12-18T01:18:56;70.07;;;30.80;;
9218;SDS011;4644;48.858;9.184;2022-12-18T01:21:23;62.07;;;30.37;;
9218;SDS011;4644;48.858;9.184;2022-12-18T01:23:51;63.30;;;30.53;;
9218;SDS011;4644;48.858;9.184;2022-12-18T01:26:19;60.03;;;29.97;;
9218;SDS011;4644;48.858;9.184;2022-12-18T01:28:46;68.30;;;30.63;;
9218;SDS011;4644;48.858;9.184;2022-12-18T01:31:16;65.60;;;29.47;;
9218;SDS011;4644;48.858;9.184;2022-12-18T01:33:47;61.73;;;29.43;;
9218;SDS011;4644;48.858;9.184;2022-12-18T01:36:16;67.90;;;30.13;;
9218;SDS011;4644;48.858;9.184;2022-12-18T01:38:44;64.27;;;29.10;;
9218;SDS011;4644;48.858;9.184;2022-12-18T01:41:12;62.73;;;29.53;;
9218;SDS011;4644;48.858;9.184;2022-12-18T01:43:41;67.43;;;28.67;;
9218;SDS011;4644;48.858;9.184;2022-12-18T01:46:12;64.67;;;28.93;;
9218;SDS011;4644;48.858;9.184;2022-12-18T01:48:41;71.03;;;31.83;;
9218;SDS011;4644;48.858;9.184;2022-12-18T01:51:09;63.60;;;28.83;;
9218;SDS011;4644;48.858;9.184;2022-12-18T01:53:37;70.90;;;31.27;;
9218;SDS011;4644;48.858;9.184;2022-12-18T01:56:07;64.87;;;29.73;;
9218;SDS011;4644;48.858;9.184;2022-12-18T01:58:39;68.30;;;32.67;;
9218;SDS011;4644;48.858;9.184;2022-12-18T02:01:12;69.37;;;30.27;;
9218;SDS011;4644;48.858;9.184;2022-12-18T02:03:42;62.67;;;29.60;;
9218;SDS011;4644;48.858;9.184;2022-12-18T02:06:11;61.73;;;28.13;;
9218;SDS011;4644;48.858;9.184;2022-12-18T02:08:45;61.93;;;28.33;;
9218;SDS011;4644;48.858;9.184;2022-12-18T02:11:25;64.17;;;28.43;;
9218;SDS011;4644;48.858;9.184;2022-12-18T02:14:04;65.30;;;29.47;;
9218;SDS011;4644;48.858;9.184;2022-12-18T02:16:43;66.60;;;27.97;;
9218;SDS011;4644;48.858;9.184;2022-12-18T02:19:19;50.87;;;22.93;;
9218;SDS011;4644;48.858;9.184;2022-12-18T02:22:01;62.03;;;28.70;;
9218;SDS011;4644;48.858;9.184;2022-12-18T02:24:40;62.40;;;26.80;;
9218;SDS011;4644;48.858;9.184;2022-12-18T02:27:22;56.30;;;25.97;;
9218;SDS011;4644;48.858;9.184;2022-12-18T02:29:50;58.37;;;25.83;;
9218;SDS011;4644;48.858;9.184;2022-12-18T02:32:25;62.77;;;26.73;;
9218;SDS011;4644;48.858;9.184;2022-12-18T02:34:54;61.17;;;27.27;;
9218;SDS011;4644;48.858;9.184;2022-12-18T02:37:23;62.10;;;28.13;;
9218;SDS011;4644;48.858;9.184;2022-12-18T02:39:53;58.97;;;26.90;;
9218;SDS011;4644;48.858;9.184;2022-12-18T02:42:23;52.83;;;26.27;;
9218;SDS011;4644;48.858;9.184;2022-12-18T02:44:51;52.53;;;25.57;;
9218;SDS011;4644;48.858;9.184;2022-12-18T02:47:19;54.20;;;26.40;;
9218;SDS011;4644;48.858;9.184;2022-12-18T02:49:51;55.37;;;25.97;;
9218;SDS011;4644;48.858;9.184;2022-12-18T02:52:25;58.40;;;26.43;;
9218;SDS011;4644;48.858;9.184;2022-12-18T02:55:00;58.63;;;27.80;;
9218;SDS011;4644;48.858;9.184;2022-12-18T02:57:42;58.80;;;26.63;;
9218;SDS011;4644;48.858;9.184;2022-12-18T03:00:14;50.90;;;25.27;;
9218;SDS011;4644;48.858;9.184;2022-12-18T03:02:44;55.73;;;26.03;;
9218;SDS011;4644;48.858;9.184;2022-12-18T03:05:19;54.03;;;27.53;;
9218;SDS011;4644;48.858;9.184;2022-12-18T03:07:50;59.70;;;26.30;;
9218;SDS011;4644;48.858;9.184;2022-12-18T03:10:23;56.10;;;26.10;;
9218;SDS011;4644;48.858;9.184;2022-12-18T03:12:56;57.70;;;25.03;;
9218;SDS011;4644;48.858;9.184;2022-12-18T03:15:29;51.70;;;24.97;;
9218;SDS011;4644;48.858;9.184;2022-12-18T03:18:01;54.53;;;24.53;;
9218;SDS011;4644;48.858;9.184;2022-12-18T03:20:31;51.83;;;24.47;;
9218;SDS011;4644;48.858;9.184;2022-12-18T03:23:02;48.03;;;25.40;;
9218;SDS011;4644;48.858;9.184;2022-12-18T03:25:33;54.20;;;25.53;;
9218;SDS011;4644;48.858;9.184;2022-12-18T03:28:04;56.17;;;25.23;;
9218;SDS011;4644;48.858;9.184;2022-12-18T03:30:37;47.67;;;23.17;;
9218;SDS011;4644;48.858;9.184;2022-12-18T03:33:07;45.37;;;22.30;;
9218;SDS011;4644;48.858;9.184;2022-12-18T03:35:38;50.57;;;24.00;;
9218;SDS011;4644;48.858;9.184;2022-12-18T03:38:09;53.23;;;24.43;;
9218;SDS011;4644;48.858;9.184;2022-12-18T03:40:39;47.93;;;22.53;;
9218;SDS011;4644;48.858;9.184;2022-12-18T03:43:15;49.33;;;23.53;;
9218;SDS011;4644;48.858;9.184;2022-12-18T03:45:51;47.37;;;22.70;;
9218;SDS011;4644;48.858;9.184;2022-12-18T03:48:26;51.83;;;23.67;;
9218;SDS011;4644;48.858;9.184;2022-12-18T03:50:57;45.50;;;21.80;;
9218;SDS011;4644;48.858;9.184;2022-12-18T03:53:31;47.47;;;22.90;;
9218;SDS011;4644;48.858;9.184;2022-12-18T03:56:03;44.83;;;22.70;;
9218;SDS011;4644;48.858;9.184;2022-12-18T03:58:34;47.47;;;23.50;;
9218;SDS011;4644;48.858;9.184;2022-12-18T04:01:05;44.30;;;23.73;;
9218;SDS011;4644;48.858;9.184;2022-12-18T04:03:34;45.50;;;22.73;;
9218;SDS011;4644;48.858;9.184;2022-12-18T04:06:02;46.63;;;22.30;;
9218;SDS011;4644;48.858;9.184;2022-12-18T04:08:31;45.20;;;23.47;;
9218;SDS011;4644;48.858;9.184;2022-12-18T04:10:59;49.10;;;22.93;;
9218;SDS011;4644;48.858;9.184;2022-12-18T04:13:28;49.50;;;23.07;;
9218;SDS011;4644;48.858;9.184;2022-12-18T04:15:57;46.87;;;23.80;;
9218;SDS011;4644;48.858;9.184;2022-12-18T04:18:24;43.10;;;22.40;;
9218;SDS011;4644;48.858;9.184;2022-12-18T04:20:51;46.00;;;22.83;;
9218;SDS011;4644;48.858;9.184;2022-12-18T04:23:18;45.93;;;22.67;;
9218;SDS011;4644;48.858;9.184;2022-12-18T04:25:46;46.50;;;21.53;;
9218;SDS011;4644;48.858;9.184;2022-12-18T04:28:13;44.50;;;22.33;;
9218;SDS011;4644;48.858;9.184;2022-12-18T04:30:40;45.43;;;20.93;;
9218;SDS011;4644;48.858;9.184;2022-12-18T04:33:10;49.83;;;22.17;;
9218;SDS011;4644;48.858;9.184;2022-12-18T04:35:37;43.83;;;21.87;;
9218;SDS011;4644;48.858;9.184;2022-12-18T04:38:05;52.63;;;23.10;;
9218;SDS011;4644;48.858;9.184;2022-12-18T04:40:33;45.40;;;22.60;;
9218;SDS011;4644;48.858;9.184;2022-12-18T04:43:00;44.10;;;21.07;;
9218;SDS011;4644;48.858;9.184;2022-12-18T04:45:27;45.30;;;22.17;;
9218;SDS011;4644;48.858;9.184;2022-12-18T04:47:54;49.50;;;23.37;;
9218;SDS011;4644;48.858;9.184;2022-12-18T04:50:25;46.83;;;23.10;;
9218;SDS011;4644;48.858;9.184;2022-12-18T04:52:52;47.43;;;21.97;;
9218;SDS011;4644;48.858;9.184;2022-12-18T04:55:19;48.57;;;22.43;;
9218;SDS011;4644;48.858;9.184;2022-12-18T04:57:46;44.63;;;21.77;;
9218;SDS011;4644;48.858;9.184;2022-12-18T05:00:14;44.80;;;20.97;;
9218;SDS011;4644;48.858;9.184;2022-12-18T05:02:41;46.00;;;22.63;;
9218;SDS011;4644;48.858;9.184;2022-12-18T05:05:08;43.20;;;21.80;;
9218;SDS011;4644;48.858;9.184;2022-12-18T05:07:36;46.70;;;22.07;;
9218;SDS011;4644;48.858;9.184;2022-12-18T05:10:04;43.13;;;21.57;;
9218;SDS011;4644;48.858;9.184;2022-12-18T05:12:31;44.47;;;22.53;;
9218;SDS011;4644;48.858;9.184;2022-12-18T05:14:58;43.07;;;20.70;;
9218;SDS011;4644;48.858;9.184;2022-12-18T05:17:26;50.10;;;23.17;;
9218;SDS011;4644;48.858;9.184;2022-12-18T05:19:52;44.30;;;21.93;;
9218;SDS011;4644;48.858;9.184;2022-12-18T05:22:19;49.03;;;23.60;;
9218;SDS011;4644;48.858;9.184;2022-12-18T05:24:48;50.00;;;22.63;;
9218;SDS011;4644;48.858;9.184;2022-12-18T05:27:15;46.20;;;21.77;;
9218;SDS011;4644;48.858;9.184;2022-12-18T05:29:42;50.10;;;23.00;;
9218;SDS011;4644;48.858;9.184;2022-12-18T05:32:09;46.00;;;22.63;;
9218;SDS011;4644;48.858;9.184;2022-12-18T05:34:36;45.07;;;21.53;;
9218;SDS011;4644;48.858;9.184;2022-12-18T05:37:03;52.13;;;24.37;;
9218;SDS011;4644;48.858;9.184;2022-12-18T05:39:30;49.00;;;21.63;;
9218;SDS011;4644;48.858;9.184;2022-12-18T05:41:59;43.77;;;21.27;;
9218;SDS011;4644;48.858;9.184;2022-12-18T05:44:26;41.77;;;22.13;;
9218;SDS011;4644;48.858;9.184;2022-12-18T05:46:53;43.90;;;21.70;;
9218;SDS011;4644;48.858;9.184;2022-12-18T05:49:20;44.13;;;21.10;;
9218;SDS011;4644;48.858;9.184;2022-12-18T05:51:47;47.33;;;21.20;;
9218;SDS011;4644;48.858;9.184;2022-12-18T05:54:14;47.93;;;19.30;;
9218;SDS011;4644;48.858;9.184;2022-12-18T05:56:41;39.07;;;19.30;;
9218;SDS011;4644;48.858;9.184;2022-12-18T05:59:09;47.50;;;22.53;;
9218;SDS011;4644;48.858;9.184;2022-12-18T06:01:36;46.17;;;20.87;;
9218;SDS011;4644;48.858;9.184;2022-12-18T06:04:03;44.23;;;20.60;;
9218;SDS011;4644;48.858;9.184;2022-12-18T06:06:30;42.27;;;20.57;;
9218;SDS011;4644;48.858;9.184;2022-12-18T06:08:58;44.00;;;20.87;;
9218;SDS011;4644;48.858;9.184;2022-12-18T06:11:26;44.67;;;21.07;;
9218;SDS011;4644;48.858;9.184;2022-12-18T06:13:54;45.73;;;20.97;;
9218;SDS011;4644;48.858;9.184;2022-12-18T06:16:23;40.70;;;20.47;;
9218;SDS011;4644;48.858;9.184;2022-12-18T06:18:50;43.80;;;20.63;;
9218;SDS011;4644;48.858;9.184;2022-12-18T06:21:17;44.17;;;19.43;;
9218;SDS011;4644;48.858;9.184;2022-12-18T06:23:44;39.97;;;19.73;;
9218;SDS011;4644;48.858;9.184;2022-12-18T06:26:12;38.63;;;19.67;;
9218;SDS011;4644;48.858;9.184;2022-12-18T06:28:40;40.70;;;19.83;;
9218;SDS011;4644;48.858;9.184;2022-12-18T06:31:07;39.37;;;19.87;;
9218;SDS011;4644;48.858;9.184;2022-12-18T06:33:37;40.20;;;20.33;;
9218;SDS011;4644;48.858;9.184;2022-12-18T06:36:05;42.10;;;19.97;;
9218;SDS011;4644;48.858;9.184;2022-12-18T06:38:34;38.70;;;19.30;;
9218;SDS011;4644;48.858;9.184;2022-12-18T06:41:05;41.23;;;19.13;;
9218;SDS011;4644;48.858;9.184;2022-12-18T06:43:40;40.97;;;19.57;;
9218;SDS011;4644;48.858;9.184;2022-12-18T06:46:10;38.00;;;19.13;;
9218;SDS011;4644;48.858;9.184;2022-12-18T06:48:47;37.97;;;19.03;;
9218;SDS011;4644;48.858;9.184;2022-12-18T06:51:17;40.70;;;19.50;;
9218;SDS011;4644;48.858;9.184;2022-12-18T06:53:44;42.33;;;20.03;;
9218;SDS011;4644;48.858;9.184;2022-12-18T06:56:11;42.87;;;20.30;;
9218;SDS011;4644;48.858;9.184;2022-12-18T06:58:38;40.70;;;21.43;;
9218;SDS011;4644;48.858;9.184;2022-12-18T07:01:06;38.77;;;19.07;;
9218;SDS011;4644;48.858;9.184;2022-12-18T07:03:35;40.80;;;18.67;;
9218;SDS011;4644;48.858;9.184;2022-12-18T07:06:03;39.37;;;18.77;;
9218;SDS011;4644;48.858;9.184;2022-12-18T07:08:31;37.73;;;18.73;;
9218;SDS011;4644;48.858;9.184;2022-12-18T07:10:58;42.90;;;19.97;;
9218;SDS011;4644;48.858;9.184;2022-12-18T07:13:25;37.73;;;19.60;;
9218;SDS011;4644;48.858;9.184;2022-12-18T07:15:52;43.27;;;21.30;;
9218;SDS011;4644;48.858;9.184;2022-12-18T07:18:19;37.07;;;19.53;;
9218;SDS011;4644;48.858;9.184;2022-12-18T07:20:48;40.27;;;18.97;;
9218;SDS011;4644;48.858;9.184;2022-12-18T07:23:17;37.50;;;18.07;;
9218;SDS011;4644;48.858;9.184;2022-12-18T07:25:43;38.23;;;18.20;;
9218;SDS011;4644;48.858;9.184;2022-12-18T07:28:11;38.43;;;17.77;;
9218;SDS011;4644;48.858;9.184;2022-12-18T07:30:38;34.53;;;18.67;;
9218;SDS011;4644;48.858;9.184;2022-12-18T07:33:05;36.50;;;18.53;;
9218;SDS011;4644;48.858;9.184;2022-12-18T07:35:32;38.90;;;18.73;;
9218;SDS011;4644;48.858;9.184;2022-12-18T07:37:59;36.60;;;19.63;;
9218;SDS011;4644;48.858;9.184;2022-12-18T07:40:28;36.90;;;18.10;;
9218;SDS011;4644;48.858;9.184;2022-12-18T07:42:55;40.07;;;19.17;;
9218;SDS011;4644;48.858;9.184;2022-12-18T07:45:22;37.03;;;19.57;;
9218;SDS011;4644;48.858;9.184;2022-12-18T07:47:49;40.73;;;20.23;;
9218;SDS011;4644;48.858;9.184;2022-12-18T07:50:17;36.47;;;18.87;;
9218;SDS011;4644;48.858;9.184;2022-12-18T07:52:44;40.13;;;18.97;;
9218;SDS011;4644;48.858;9.184;2022-12-18T07:55:11;37.17;;;18.23;;
9218;SDS011;4644;48.858;9.184;2022-12-18T07:57:40;37.57;;;19.17;;
9218;SDS011;4644;48.858;9.184;2022-12-18T08:00:07;39.83;;;18.87;;
9218;SDS011;4644;48.858;9.184;2022-12-18T08:02:35;36.20;;;18.70;;
9218;SDS011;4644;48.858;9.184;2022-12-18T08:05:02;35.17;;;17.77;;
9218;SDS011;4644;48.858;9.184;2022-12-18T08:07:29;32.57;;;18.23;;
9218;SDS011;4644;48.858;9.184;2022-12-18T08:09:56;39.07;;;20.00;;
9218;SDS011;4644;48.858;9.184;2022-12-18T08:12:23;39.17;;;19.73;;
9218;SDS011;4644;48.858;9.184;2022-12-18T08:14:51;38.43;;;18.37;;
9218;SDS011;4644;48.858;9.184;2022-12-18T08:17:18;36.40;;;18.90;;
9218;SDS011;4644;48.858;9.184;2022-12-18T08:19:46;35.50;;;19.83;;
9218;SDS011;4644;48.858;9.184;2022-12-18T08:22:13;37.17;;;19.27;;
9218;SDS011;4644;48.858;9.184;2022-12-18T08:24:40;38.07;;;19.80;;
9218;SDS011;4644;48.858;9.184;2022-12-18T08:27:07;38.73;;;20.00;;
9218;SDS011;4644;48.858;9.184;2022-12-18T08:29:34;42.93;;;21.73;;
9218;SDS011;4644;48.858;9.184;2022-12-18T08:32:02;43.30;;;20.30;;
9218;SDS011;4644;48.858;9.184;2022-12-18T08:34:29;41.20;;;19.87;;
9218;SDS011;4644;48.858;9.184;2022-12-18T08:36:56;35.27;;;18.20;;
9218;SDS011;4644;48.858;9.184;2022-12-18T08:39:23;39.37;;;20.10;;
9218;SDS011;4644;48.858;9.184;2022-12-18T08:41:50;42.07;;;20.30;;
9218;SDS011;4644;48.858;9.184;2022-12-18T08:44:31;44.53;;;20.67;;
9218;SDS011;4644;48.858;9.184;2022-12-18T08:47:08;41.73;;;21.10;;
9218;SDS011;4644;48.858;9.184;2022-12-18T08:49:35;38.60;;;20.23;;
9218;SDS011;4644;48.858;9.184;2022-12-18T08:52:02;41.93;;;21.17;;
9218;SDS011;4644;48.858;9.184;2022-12-18T08:54:30;43.53;;;21.43;;
9218;SDS011;4644;48.858;9.184;2022-12-18T08:56:57;44.53;;;20.43;;
9218;SDS011;4644;48.858;9.184;2022-12-18T08:59:24;43.97;;;23.07;;
9218;SDS011;4644;48.858;9.184;2022-12-18T09:01:55;39.27;;;19.97;;
9218;SDS011;4644;48.858;9.184;2022-12-18T09:04:24;41.80;;;20.87;;
9218;SDS011;4644;48.858;9.184;2022-12-18T09:06:51;40.83;;;20.50;;
9218;SDS011;4644;48.858;9.184;2022-12-18T09:09:18;39.40;;;20.03;;
9218;SDS011;4644;48.858;9.184;2022-12-18T09:11:45;43.00;;;20.97;;
9218;SDS011;4644;48.858;9.184;2022-12-18T09:14:12;41.23;;;21.30;;
9218;SDS011;4644;48.858;9.184;2022-12-18T09:16:39;36.70;;;19.47;;
9218;SDS011;4644;48.858;9.184;2022-12-18T09:19:06;47.17;;;20.80;;
9218;SDS011;4644;48.858;9.184;2022-12-18T09:21:35;40.63;;;21.00;;
9218;SDS011;4644;48.858;9.184;2022-12-18T09:24:04;40.30;;;20.60;;
9218;SDS011;4644;48.858;9.184;2022-12-18T09:26:32;36.27;;;19.77;;
9218;SDS011;4644;48.858;9.184;2022-12-18T09:28:59;39.30;;;20.17;;
9218;SDS011;4644;48.858;9.184;2022-12-18T09:31:26;41.90;;;20.30;;
9218;SDS011;4644;48.858;9.184;2022-12-18T09:33:54;39.07;;;20.70;;
9218;SDS011;4644;48.858;9.184;2022-12-18T09:36:22;39.47;;;20.27;;
9218;SDS011;4644;48.858;9.184;2022-12-18T09:38:50;36.33;;;20.70;;
9218;SDS011;4644;48.858;9.184;2022-12-18T09:41:23;38.40;;;19.90;;
9218;SDS011;4644;48.858;9.184;2022-12-18T09:44:00;38.27;;;20.07;;
9218;SDS011;4644;48.858;9.184;2022-12-18T09:46:32;39.37;;;21.33;;
9218;SDS011;4644;48.858;9.184;2022-12-18T09:49:03;43.63;;;21.43;;
9218;SDS011;4644;48.858;9.184;2022-12-18T09:51:36;41.20;;;19.30;;
9218;SDS011;4644;48.858;9.184;2022-12-18T09:54:11;39.40;;;19.53;;
9218;SDS011;4644;48.858;9.184;2022-12-18T09:56:42;43.10;;;21.03;;
9218;SDS011;4644;48.858;9.184;2022-12-18T09:59:14;36.53;;;18.73;;
9218;SDS011;4644;48.858;9.184;2022-12-18T10:01:48;35.53;;;19.27;;
9218;SDS011;4644;48.858;9.184;2022-12-18T10:04:16;39.33;;;20.53;;
9218;SDS011;4644;48.858;9.184;2022-12-18T10:06:46;42.03;;;20.93;;
9218;SDS011;4644;48.858;9.184;2022-12-18T10:09:27;39.30;;;20.23;;
9218;SDS011;4644;48.858;9.184;2022-12-18T10:12:02;38.63;;;21.07;;
9218;SDS011;4644;48.858;9.184;2022-12-18T10:14:36;37.40;;;19.47;;
9218;SDS011;4644;48.858;9.184;2022-12-18T10:17:12;36.90;;;19.87;;
9218;SDS011;4644;48.858;9.184;2022-12-18T10:19:47;38.03;;;20.00;;
9218;SDS011;4644;48.858;9.184;2022-12-18T10:22:33;35.10;;;18.60;;
9218;SDS011;4644;48.858;9.184;2022-12-18T10:25:15;33.80;;;19.53;;
9218;SDS011;4644;48.858;9.184;2022-12-18T10:27:48;39.20;;;20.17;;
9218;SDS011;4644;48.858;9.184;2022-12-18T10:30:20;38.77;;;20.67;;
9218;SDS011;4644;48.858;9.184;2022-12-18T10:32:49;35.23;;;19.20;;
9218;SDS011;4644;48.858;9.184;2022-12-18T10:35:17;37.87;;;20.10;;
9218;SDS011;4644;48.858;9.184;2022-12-18T10:38:00;37.77;;;18.60;;
9218;SDS011;4644;48.858;9.184;2022-12-18T10:40:33;35.60;;;17.83;;
9218;SDS011;4644;48.858;9.184;2022-12-18T10:43:16;34.03;;;18.27;;
9218;SDS011;4644;48.858;9.184;2022-12-18T10:48:52;32.60;;;17.07;;
9218;SDS011;4644;48.858;9.184;2022-12-18T10:51:21;32.50;;;17.43;;
9218;SDS011;4644;48.858;9.184;2022-12-18T10:53:56;31.93;;;16.93;;
9218;SDS011;4644;48.858;9.184;2022-12-18T10:56:28;38.00;;;17.73;;
9218;SDS011;4644;48.858;9.184;2022-12-18T10:58:58;34.83;;;18.47;;
9218;SDS011;4644;48.858;9.184;2022-12-18T11:01:26;30.57;;;16.43;;
9218;SDS011;4644;48.858;9.184;2022-12-18T11:04:01;29.30;;;16.73;;
9218;SDS011;4644;48.858;9.184;2022-12-18T11:06:51;31.73;;;17.27;;
9218;SDS011;4644;48.858;9.184;2022-12-18T11:09:22;30.07;;;16.13;;
9218;SDS011;4644;48.858;9.184;2022-12-18T11:11:58;30.23;;;16.57;;
9218;SDS011;4644;48.858;9.184;2022-12-18T11:14:28;29.37;;;15.50;;
9218;SDS011;4644;48.858;9.184;2022-12-18T11:16:57;26.90;;;15.20;;
9218;SDS011;4644;48.858;9.184;2022-12-18T11:19:31;30.23;;;17.17;;
9218;SDS011;4644;48.858;9.184;2022-12-18T11:22:00;27.30;;;14.90;;
9218;SDS011;4644;48.858;9.184;2022-12-18T11:24:29;28.20;;;16.60;;
9218;SDS011;4644;48.858;9.184;2022-12-18T11:26:59;27.97;;;15.87;;
9218;SDS011;4644;48.858;9.184;2022-12-18T11:29:31;30.60;;;16.10;;
9218;SDS011;4644;48.858;9.184;2022-12-18T11:35:03;29.83;;;16.27;;
9218;SDS011;4644;48.858;9.184;2022-12-18T11:37:41;29.23;;;17.00;;
9218;SDS011;4644;48.858;9.184;2022-12-18T11:40:14;29.93;;;17.40;;
9218;SDS011;4644;48.858;9.184;2022-12-18T11:42:46;29.07;;;16.07;;
9218;SDS011;4644;48.858;9.184;2022-12-18T11:45:25;29.33;;;17.23;;
9218;SDS011;4644;48.858;9.184;2022-12-18T11:47:58;30.63;;;16.20;;
9218;SDS011;4644;48.858;9.184;2022-12-18T11:50:29;30.77;;;16.53;;
9218;SDS011;4644;48.858;9.184;2022-12-18T11:53:00;30.37;;;16.50;;
9218;SDS011;4644;48.858;9.184;2022-12-18T11:55:30;30.60;;;16.87;;
9218;SDS011;4644;48.858;9.184;2022-12-18T11:58:07;33.20;;;17.83;;
9218;SDS011;4644;48.858;9.184;2022-12-18T12:00:40;32.77;;;17.70;;
9218;SDS011;4644;48.858;9.184;2022-12-18T12:03:20;27.87;;;16.37;;
9218;SDS011;4644;48.858;9.184;2022-12-18T12:08:50;27.67;;;16.50;;
9218;SDS011;4644;48.858;9.184;2022-12-18T12:11:29;33.70;;;17.83;;
9218;SDS011;4644;48.858;9.184;2022-12-18T12:14:10;31.47;;;16.90;;
9218;SDS011;4644;48.858;9.184;2022-12-18T12:16:57;32.17;;;17.93;;
9218;SDS011;4644;48.858;9.184;2022-12-18T12:19:37;29.53;;;16.70;;
9218;SDS011;4644;48.858;9.184;2022-12-18T12:22:10;34.00;;;17.47;;
9218;SDS011;4644;48.858;9.184;2022-12-18T12:24:50;34.33;;;17.37;;
9218;SDS011;4644;48.858;9.184;2022-12-18T12:27:31;32.17;;;18.33;;
9218;SDS011;4644;48.858;9.184;2022-12-18T12:30:07;33.97;;;17.67;;
9218;SDS011;4644;48.858;9.184;2022-12-18T12:32:39;30.37;;;16.90;;
9218;SDS011;4644;48.858;9.184;2022-12-18T12:35:27;31.67;;;17.43;;
9218;SDS011;4644;48.858;9.184;2022-12-18T12:38:05;32.47;;;17.83;;
9218;SDS011;4644;48.858;9.184;2022-12-18T12:40:38;33.87;;;18.10;;
9218;SDS011;4644;48.858;9.184;2022-12-18T12:43:12;34.13;;;17.57;;
9218;SDS011;4644;48.858;9.184;2022-12-18T12:45:50;29.27;;;17.37;;
9218;SDS011;4644;48.858;9.184;2022-12-18T12:48:23;34.80;;;18.40;;
9218;SDS011;4644;48.858;9.184;2022-12-18T12:51:01;31.43;;;17.47;;
9218;SDS011;4644;48.858;9.184;2022-12-18T12:53:35;34.53;;;17.57;;
9218;SDS011;4644;48.858;9.184;2022-12-18T12:56:04;34.57;;;17.93;;
9218;SDS011;4644;48.858;9.184;2022-12-18T12:58:34;36.63;;;18.97;;
9218;SDS011;4644;48.858;9.184;2022-12-18T13:01:14;35.13;;;19.50;;
9218;SDS011;4644;48.858;9.184;2022-12-18T13:03:52;34.30;;;18.07;;
9218;SDS011;4644;48.858;9.184;2022-12-18T13:06:28;33.00;;;17.93;;
9218;SDS011;4644;48.858;9.184;2022-12-18T13:09:04;32.30;;;18.53;;
9218;SDS011;4644;48.858;9.184;2022-12-18T13:11:32;28.30;;;16.73;;
9218;SDS011;4644;48.858;9.184;2022-12-18T13:14:21;33.93;;;18.20;;
9218;SDS011;4644;48.858;9.184;2022-12-18T13:16:51;35.40;;;18.93;;
9218;SDS011;4644;48.858;9.184;2022-12-18T13:19:38;32.03;;;17.97;;
9218;SDS011;4644;48.858;9.184;2022-12-18T13:22:21;36.40;;;19.33;;
9218;SDS011;4644;48.858;9.184;2022-12-18T13:24:49;32.97;;;17.17;;
9218;SDS011;4644;48.858;9.184;2022-12-18T13:27:45;32.03;;;17.23;;
9218;SDS011;4644;48.858;9.184;2022-12-18T13:36:09;34.37;;;18.47;;
9218;SDS011;4644;48.858;9.184;2022-12-18T13:38:40;28.90;;;16.87;;
9218;SDS011;4644;48.858;9.184;2022-12-18T13:41:24;31.60;;;17.93;;
9218;SDS011;4644;48.858;9.184;2022-12-18T13:43:53;35.87;;;17.97;;
9218;SDS011;4644;48.858;9.184;2022-12-18T13:46:23;33.37;;;18.13;;
9218;SDS011;4644;48.858;9.184;2022-12-18T13:48:58;34.50;;;18.37;;
9218;SDS011;4644;48.858;9.184;2022-12-18T13:51:32;35.47;;;18.73;;
9218;SDS011;4644;48.858;9.184;2022-12-18T13:54:00;33.20;;;17.87;;
9218;SDS011;4644;48.858;9.184;2022-12-18T13:56:32;31.97;;;17.23;;
9218;SDS011;4644;48.858;9.184;2022-12-18T13:59:06;33.50;;;17.50;;
9218;SDS011;4644;48.858;9.184;2022-12-18T14:01:42;31.63;;;16.43;;
9218;SDS011;4644;48.858;9.184;2022-12-18T14:04:12;31.90;;;17.43;;
9218;SDS011;4644;48.858;9.184;2022-12-18T14:06:47;33.67;;;17.50;;
9218;SDS011;4644;48.858;9.184;2022-12-18T14:09:15;34.67;;;19.33;;
9218;SDS011;4644;48.858;9.184;2022-12-18T14:11:46;30.47;;;16.97;;
9218;SDS011;4644;48.858;9.184;2022-12-18T14:14:15;31.07;;;18.10;;
9218;SDS011;4644;48.858;9.184;2022-12-18T14:16:43;34.80;;;19.13;;
9218;SDS011;4644;48.858;9.184;2022-12-18T14:19:13;38.17;;;19.23;;
9218;SDS011;4644;48.858;9.184;2022-12-18T14:21:45;32.50;;;17.50;;
9218;SDS011;4644;48.858;9.184;2022-12-18T14:24:14;35.43;;;18.60;;
9218;SDS011;4644;48.858;9.184;2022-12-18T14:26:43;33.30;;;17.27;;
9218;SDS011;4644;48.858;9.184;2022-12-18T14:29:24;33.90;;;18.23;;
9218;SDS011;4644;48.858;9.184;2022-12-18T14:32:03;30.83;;;17.87;;
9218;SDS011;4644;48.858;9.184;2022-12-18T14:34:37;29.27;;;16.93;;
9218;SDS011;4644;48.858;9.184;2022-12-18T14:37:04;33.30;;;18.27;;
9218;SDS011;4644;48.858;9.184;2022-12-18T14:39:32;37.77;;;18.67;;
9218;SDS011;4644;48.858;9.184;2022-12-18T14:41:59;33.17;;;18.43;;
9218;SDS011;4644;48.858;9.184;2022-12-18T14:44:26;33.87;;;18.17;;
9218;SDS011;4644;48.858;9.184;2022-12-18T14:46:54;37.07;;;19.83;;
9218;SDS011;4644;48.858;9.184;2022-12-18T14:49:23;39.30;;;19.40;;
9218;SDS011;4644;48.858;9.184;2022-12-18T14:51:55;32.60;;;19.13;;
9218;SDS011;4644;48.858;9.184;2022-12-18T14:54:24;35.37;;;18.67;;
9218;SDS011;4644;48.858;9.184;2022-12-18T14:56:56;39.87;;;19.33;;
9218;SDS011;4644;48.858;9.184;2022-12-18T14:59:27;36.90;;;20.27;;
9218;SDS011;4644;48.858;9.184;2022-12-18T15:01:57;38.17;;;19.37;;
9218;SDS011;4644;48.858;9.184;2022-12-18T15:04:28;36.67;;;20.27;;
9218;SDS011;4644;48.858;9.184;2022-12-18T15:07:05;36.87;;;19.83;;
9218;SDS011;4644;48.858;9.184;2022-12-18T15:09:42;36.57;;;20.20;;
9218;SDS011;4644;48.858;9.184;2022-12-18T15:12:22;35.47;;;19.10;;
9218;SDS011;4644;48.858;9.184;2022-12-18T15:14:55;36.70;;;20.20;;
9218;SDS011;4644;48.858;9.184;2022-12-18T15:17:22;40.53;;;21.57;;
9218;SDS011;4644;48.858;9.184;2022-12-18T15:19:51;36.40;;;20.87;;
9218;SDS011;4644;48.858;9.184;2022-12-18T15:22:27;37.47;;;20.60;;